sensor_id;sensor_type;location;lat;lon;timestamp;P1;durP1;ratioP1;P2;durP2;ratioP2
9675;SDS011;4876;42.656;23.292;2023-12-14T00:01:54;15.30;;;6.93;;
9675;SDS011;4876;42.656;23.292;2023-12-14T00:04:19;16.17;;;7.47;;
9675;SDS011;4876;42.656;23.292;2023-12-14T00:06:45;15.75;;;8.00;;
9675;SDS011;4876;42.656;23.292;2023-12-14T00:09:10;14.77;;;7.43;;
9675;SDS011;4876;42.656;23.292;2023-12-14T00:11:40;15.02;;;7.45;;
9675;SDS011;4876;42.656;23.292;2023-12-14T00:16:30;13.85;;;7.15;;
9675;SDS011;4876;42.656;23.292;2023-12-14T00:18:56;16.02;;;7.32;;
9675;SDS011;4876;42.656;23.292;2023-12-14T00:21:22;12.93;;;6.85;;
9675;SDS011;4876;42.656;23.292;2023-12-14T00:23:48;14.70;;;6.65;;
9675;SDS011;4876;42.656;23.292;2023-12-14T00:26:13;11.65;;;6.10;;
9675;SDS011;4876;42.656;23.292;2023-12-14T00:28:39;17.67;;;8.43;;
9675;SDS011;4876;42.656;23.292;2023-12-14T00:31:04;16.83;;;7.50;;
9675;SDS011;4876;42.656;23.292;2023-12-14T00:33:30;14.40;;;7.13;;
9675;SDS011;4876;42.656;23.292;2023-12-14T00:35:55;14.23;;;7.28;;
9675;SDS011;4876;42.656;23.292;2023-12-14T00:38:21;13.80;;;6.68;;
9675;SDS011;4876;42.656;23.292;2023-12-14T00:40:46;15.57;;;7.07;;
9675;SDS011;4876;42.656;23.292;2023-12-14T00:43:12;12.00;;;6.55;;
9675;SDS011;4876;42.656;23.292;2023-12-14T00:45:37;12.80;;;6.43;;
9675;SDS011;4876;42.656;23.292;2023-12-14T00:48:03;12.50;;;6.90;;
9675;SDS011;4876;42.656;23.292;2023-12-14T00:50:29;15.05;;;6.88;;
9675;SDS011;4876;42.656;23.292;2023-12-14T00:52:54;14.55;;;7.22;;
9675;SDS011;4876;42.656;23.292;2023-12-14T00:55:20;19.48;;;7.55;;
9675;SDS011;4876;42.656;23.292;2023-12-14T00:57:45;12.63;;;7.07;;
9675;SDS011;4876;42.656;23.292;2023-12-14T01:00:11;12.10;;;6.72;;
9675;SDS011;4876;42.656;23.292;2023-12-14T01:02:37;15.57;;;6.90;;
9675;SDS011;4876;42.656;23.292;2023-12-14T01:05:03;14.30;;;6.88;;
9675;SDS011;4876;42.656;23.292;2023-12-14T01:07:29;16.55;;;7.07;;
9675;SDS011;4876;42.656;23.292;2023-12-14T01:09:55;13.48;;;6.57;;
9675;SDS011;4876;42.656;23.292;2023-12-14T01:12:20;14.43;;;7.13;;
9675;SDS011;4876;42.656;23.292;2023-12-14T01:14:46;13.82;;;6.57;;
9675;SDS011;4876;42.656;23.292;2023-12-14T01:17:11;10.18;;;5.00;;
9675;SDS011;4876;42.656;23.292;2023-12-14T01:19:39;12.32;;;7.32;;
9675;SDS011;4876;42.656;23.292;2023-12-14T01:22:06;13.05;;;6.45;;
9675;SDS011;4876;42.656;23.292;2023-12-14T01:24:31;12.30;;;5.85;;
9675;SDS011;4876;42.656;23.292;2023-12-14T01:26:57;16.88;;;6.65;;
9675;SDS011;4876;42.656;23.292;2023-12-14T01:29:22;14.18;;;6.30;;
9675;SDS011;4876;42.656;23.292;2023-12-14T01:31:47;14.02;;;7.10;;
9675;SDS011;4876;42.656;23.292;2023-12-14T01:34:13;15.30;;;6.65;;
9675;SDS011;4876;42.656;23.292;2023-12-14T01:36:40;14.07;;;6.32;;
9675;SDS011;4876;42.656;23.292;2023-12-14T01:39:06;13.80;;;6.22;;
9675;SDS011;4876;42.656;23.292;2023-12-14T01:41:32;16.05;;;6.28;;
9675;SDS011;4876;42.656;23.292;2023-12-14T01:43:58;13.15;;;6.63;;
9675;SDS011;4876;42.656;23.292;2023-12-14T01:46:23;11.02;;;6.35;;
9675;SDS011;4876;42.656;23.292;2023-12-14T01:48:49;11.60;;;6.03;;
9675;SDS011;4876;42.656;23.292;2023-12-14T01:51:15;13.25;;;5.93;;
9675;SDS011;4876;42.656;23.292;2023-12-14T01:53:40;13.23;;;6.55;;
9675;SDS011;4876;42.656;23.292;2023-12-14T01:56:06;13.80;;;6.38;;
9675;SDS011;4876;42.656;23.292;2023-12-14T01:58:32;11.68;;;5.82;;
9675;SDS011;4876;42.656;23.292;2023-12-14T02:01:05;13.50;;;6.28;;
9675;SDS011;4876;42.656;23.292;2023-12-14T02:03:45;10.98;;;5.13;;
9675;SDS011;4876;42.656;23.292;2023-12-14T02:06:11;10.48;;;5.38;;
9675;SDS011;4876;42.656;23.292;2023-12-14T02:08:37;11.70;;;5.90;;
9675;SDS011;4876;42.656;23.292;2023-12-14T02:11:03;9.02;;;5.38;;
9675;SDS011;4876;42.656;23.292;2023-12-14T02:13:28;10.50;;;5.38;;
9675;SDS011;4876;42.656;23.292;2023-12-14T02:15:54;9.88;;;5.75;;
9675;SDS011;4876;42.656;23.292;2023-12-14T02:18:19;10.93;;;5.50;;
9675;SDS011;4876;42.656;23.292;2023-12-14T02:20:45;16.17;;;6.25;;
9675;SDS011;4876;42.656;23.292;2023-12-14T02:23:10;10.98;;;6.00;;
9675;SDS011;4876;42.656;23.292;2023-12-14T02:25:36;10.20;;;5.43;;
9675;SDS011;4876;42.656;23.292;2023-12-14T02:28:02;9.80;;;5.50;;
9675;SDS011;4876;42.656;23.292;2023-12-14T02:30:27;10.45;;;5.10;;
9675;SDS011;4876;42.656;23.292;2023-12-14T02:32:53;9.48;;;5.20;;
9675;SDS011;4876;42.656;23.292;2023-12-14T02:35:18;11.98;;;5.38;;
9675;SDS011;4876;42.656;23.292;2023-12-14T02:37:44;11.52;;;5.07;;
9675;SDS011;4876;42.656;23.292;2023-12-14T02:40:09;10.05;;;5.47;;
9675;SDS011;4876;42.656;23.292;2023-12-14T02:42:36;9.38;;;4.60;;
9675;SDS011;4876;42.656;23.292;2023-12-14T02:45:02;8.07;;;4.38;;
9675;SDS011;4876;42.656;23.292;2023-12-14T02:47:28;8.50;;;4.35;;
9675;SDS011;4876;42.656;23.292;2023-12-14T02:49:54;8.75;;;3.58;;
9675;SDS011;4876;42.656;23.292;2023-12-14T02:52:20;11.05;;;4.28;;
9675;SDS011;4876;42.656;23.292;2023-12-14T02:54:46;8.48;;;4.32;;
9675;SDS011;4876;42.656;23.292;2023-12-14T02:57:11;8.35;;;4.22;;
9675;SDS011;4876;42.656;23.292;2023-12-14T02:59:37;7.63;;;4.15;;
9675;SDS011;4876;42.656;23.292;2023-12-14T03:02:02;8.40;;;3.75;;
9675;SDS011;4876;42.656;23.292;2023-12-14T03:04:28;9.88;;;4.63;;
9675;SDS011;4876;42.656;23.292;2023-12-14T03:06:53;6.80;;;3.70;;
9675;SDS011;4876;42.656;23.292;2023-12-14T03:09:19;9.18;;;4.32;;
9675;SDS011;4876;42.656;23.292;2023-12-14T03:11:45;8.02;;;4.28;;
9675;SDS011;4876;42.656;23.292;2023-12-14T03:14:10;8.52;;;4.30;;
9675;SDS011;4876;42.656;23.292;2023-12-14T03:16:36;10.50;;;4.40;;
9675;SDS011;4876;42.656;23.292;2023-12-14T03:19:02;7.30;;;4.20;;
9675;SDS011;4876;42.656;23.292;2023-12-14T03:21:28;8.27;;;3.35;;
9675;SDS011;4876;42.656;23.292;2023-12-14T03:23:54;7.00;;;3.53;;
9675;SDS011;4876;42.656;23.292;2023-12-14T03:26:19;7.63;;;3.85;;
9675;SDS011;4876;42.656;23.292;2023-12-14T03:28:45;8.93;;;4.15;;
9675;SDS011;4876;42.656;23.292;2023-12-14T03:31:11;6.63;;;3.45;;
9675;SDS011;4876;42.656;23.292;2023-12-14T03:33:41;6.88;;;3.53;;
9675;SDS011;4876;42.656;23.292;2023-12-14T03:36:07;9.60;;;4.25;;
9675;SDS011;4876;42.656;23.292;2023-12-14T03:38:33;6.97;;;3.35;;
9675;SDS011;4876;42.656;23.292;2023-12-14T03:40:59;6.95;;;3.50;;
9675;SDS011;4876;42.656;23.292;2023-12-14T03:43:24;7.75;;;4.35;;
9675;SDS011;4876;42.656;23.292;2023-12-14T03:45:50;8.18;;;3.83;;
9675;SDS011;4876;42.656;23.292;2023-12-14T03:48:16;6.05;;;3.28;;
9675;SDS011;4876;42.656;23.292;2023-12-14T03:50:41;8.02;;;3.78;;
9675;SDS011;4876;42.656;23.292;2023-12-14T03:53:07;5.95;;;3.50;;
9675;SDS011;4876;42.656;23.292;2023-12-14T03:55:33;8.30;;;3.50;;
9675;SDS011;4876;42.656;23.292;2023-12-14T03:57:58;6.93;;;3.25;;
9675;SDS011;4876;42.656;23.292;2023-12-14T04:00:24;8.02;;;3.80;;
9675;SDS011;4876;42.656;23.292;2023-12-14T04:02:49;7.43;;;3.60;;
9675;SDS011;4876;42.656;23.292;2023-12-14T04:05:15;6.40;;;3.15;;
9675;SDS011;4876;42.656;23.292;2023-12-14T04:07:41;5.70;;;3.42;;
9675;SDS011;4876;42.656;23.292;2023-12-14T04:10:07;8.00;;;3.65;;
9675;SDS011;4876;42.656;23.292;2023-12-14T04:12:34;8.00;;;3.70;;
9675;SDS011;4876;42.656;23.292;2023-12-14T04:15:00;6.90;;;4.03;;
9675;SDS011;4876;42.656;23.292;2023-12-14T04:17:26;6.35;;;3.35;;
9675;SDS011;4876;42.656;23.292;2023-12-14T04:19:51;7.43;;;3.65;;
9675;SDS011;4876;42.656;23.292;2023-12-14T04:22:17;9.15;;;3.70;;
9675;SDS011;4876;42.656;23.292;2023-12-14T04:24:42;8.73;;;4.25;;
9675;SDS011;4876;42.656;23.292;2023-12-14T04:27:08;6.32;;;2.90;;
9675;SDS011;4876;42.656;23.292;2023-12-14T04:29:33;6.68;;;3.63;;
9675;SDS011;4876;42.656;23.292;2023-12-14T04:31:59;7.90;;;3.50;;
9675;SDS011;4876;42.656;23.292;2023-12-14T04:34:25;6.00;;;3.10;;
9675;SDS011;4876;42.656;23.292;2023-12-14T04:36:50;8.52;;;3.50;;
9675;SDS011;4876;42.656;23.292;2023-12-14T04:39:17;6.65;;;3.25;;
9675;SDS011;4876;42.656;23.292;2023-12-14T04:41:43;6.75;;;3.15;;
9675;SDS011;4876;42.656;23.292;2023-12-14T04:44:09;8.43;;;3.47;;
9675;SDS011;4876;42.656;23.292;2023-12-14T04:46:35;6.38;;;3.63;;
9675;SDS011;4876;42.656;23.292;2023-12-14T04:49:02;7.18;;;3.05;;
9675;SDS011;4876;42.656;23.292;2023-12-14T04:51:27;7.00;;;3.60;;
9675;SDS011;4876;42.656;23.292;2023-12-14T04:53:53;7.00;;;3.03;;
9675;SDS011;4876;42.656;23.292;2023-12-14T04:56:18;6.30;;;2.85;;
9675;SDS011;4876;42.656;23.292;2023-12-14T04:58:44;6.65;;;3.47;;
9675;SDS011;4876;42.656;23.292;2023-12-14T05:01:09;5.90;;;3.28;;
9675;SDS011;4876;42.656;23.292;2023-12-14T05:03:35;5.78;;;3.28;;
9675;SDS011;4876;42.656;23.292;2023-12-14T05:06:01;7.07;;;3.75;;
9675;SDS011;4876;42.656;23.292;2023-12-14T05:08:26;5.60;;;3.20;;
9675;SDS011;4876;42.656;23.292;2023-12-14T05:10:52;7.95;;;3.35;;
9675;SDS011;4876;42.656;23.292;2023-12-14T05:13:18;8.77;;;3.33;;
9675;SDS011;4876;42.656;23.292;2023-12-14T05:15:43;8.23;;;4.00;;
9675;SDS011;4876;42.656;23.292;2023-12-14T05:18:09;6.82;;;3.67;;
9675;SDS011;4876;42.656;23.292;2023-12-14T05:20:35;10.68;;;3.67;;
9675;SDS011;4876;42.656;23.292;2023-12-14T05:23:00;8.07;;;4.10;;
9675;SDS011;4876;42.656;23.292;2023-12-14T05:25:27;7.82;;;3.85;;
9675;SDS011;4876;42.656;23.292;2023-12-14T05:27:52;7.60;;;4.13;;
9675;SDS011;4876;42.656;23.292;2023-12-14T05:30:18;10.45;;;4.95;;
9675;SDS011;4876;42.656;23.292;2023-12-14T05:32:44;8.45;;;4.53;;
9675;SDS011;4876;42.656;23.292;2023-12-14T05:35:10;7.25;;;3.95;;
9675;SDS011;4876;42.656;23.292;2023-12-14T05:37:36;8.55;;;4.32;;
9675;SDS011;4876;42.656;23.292;2023-12-14T05:40:03;8.05;;;4.07;;
9675;SDS011;4876;42.656;23.292;2023-12-14T05:42:29;8.40;;;4.07;;
9675;SDS011;4876;42.656;23.292;2023-12-14T05:44:55;11.40;;;4.30;;
9675;SDS011;4876;42.656;23.292;2023-12-14T05:47:20;8.98;;;4.25;;
9675;SDS011;4876;42.656;23.292;2023-12-14T05:49:48;7.00;;;3.40;;
9675;SDS011;4876;42.656;23.292;2023-12-14T05:52:14;8.68;;;3.72;;
9675;SDS011;4876;42.656;23.292;2023-12-14T05:54:39;7.38;;;4.15;;
9675;SDS011;4876;42.656;23.292;2023-12-14T05:57:05;11.93;;;4.90;;
9675;SDS011;4876;42.656;23.292;2023-12-14T05:59:31;7.90;;;3.97;;
9675;SDS011;4876;42.656;23.292;2023-12-14T06:01:57;9.13;;;3.83;;
9675;SDS011;4876;42.656;23.292;2023-12-14T06:04:23;8.10;;;4.05;;
9675;SDS011;4876;42.656;23.292;2023-12-14T06:06:48;9.00;;;4.45;;
9675;SDS011;4876;42.656;23.292;2023-12-14T06:09:14;8.15;;;4.38;;
9675;SDS011;4876;42.656;23.292;2023-12-14T06:11:39;10.18;;;4.13;;
9675;SDS011;4876;42.656;23.292;2023-12-14T06:14:05;7.60;;;3.97;;
9675;SDS011;4876;42.656;23.292;2023-12-14T06:16:30;13.55;;;3.78;;
9675;SDS011;4876;42.656;23.292;2023-12-14T06:18:58;6.47;;;4.15;;
9675;SDS011;4876;42.656;23.292;2023-12-14T06:21:24;14.90;;;4.35;;
9675;SDS011;4876;42.656;23.292;2023-12-14T06:23:53;10.82;;;4.03;;
9675;SDS011;4876;42.656;23.292;2023-12-14T06:26:19;6.05;;;3.72;;
9675;SDS011;4876;42.656;23.292;2023-12-14T06:28:44;9.57;;;4.38;;
9675;SDS011;4876;42.656;23.292;2023-12-14T06:31:13;11.90;;;4.97;;
9675;SDS011;4876;42.656;23.292;2023-12-14T06:33:39;9.00;;;4.22;;
9675;SDS011;4876;42.656;23.292;2023-12-14T06:36:05;10.15;;;4.78;;
9675;SDS011;4876;42.656;23.292;2023-12-14T06:38:32;9.38;;;4.35;;
9675;SDS011;4876;42.656;23.292;2023-12-14T06:40:58;11.15;;;4.70;;
9675;SDS011;4876;42.656;23.292;2023-12-14T06:43:23;12.82;;;5.63;;
9675;SDS011;4876;42.656;23.292;2023-12-14T06:45:49;13.25;;;5.10;;
9675;SDS011;4876;42.656;23.292;2023-12-14T06:48:15;13.75;;;5.78;;
9675;SDS011;4876;42.656;23.292;2023-12-14T06:50:40;10.52;;;4.85;;
9675;SDS011;4876;42.656;23.292;2023-12-14T06:53:06;10.43;;;5.40;;
9675;SDS011;4876;42.656;23.292;2023-12-14T06:55:31;11.55;;;5.13;;
9675;SDS011;4876;42.656;23.292;2023-12-14T06:57:57;12.15;;;4.82;;
9675;SDS011;4876;42.656;23.292;2023-12-14T07:00:22;8.85;;;4.65;;
9675;SDS011;4876;42.656;23.292;2023-12-14T07:02:48;9.80;;;4.18;;
9675;SDS011;4876;42.656;23.292;2023-12-14T07:05:13;9.85;;;4.00;;
9675;SDS011;4876;42.656;23.292;2023-12-14T07:07:40;9.15;;;3.92;;
9675;SDS011;4876;42.656;23.292;2023-12-14T07:10:06;11.40;;;4.97;;
9675;SDS011;4876;42.656;23.292;2023-12-14T07:12:32;13.18;;;4.53;;
9675;SDS011;4876;42.656;23.292;2023-12-14T07:14:57;8.50;;;4.65;;
9675;SDS011;4876;42.656;23.292;2023-12-14T07:17:23;9.95;;;4.68;;
9675;SDS011;4876;42.656;23.292;2023-12-14T07:19:50;8.13;;;4.45;;
9675;SDS011;4876;42.656;23.292;2023-12-14T07:22:16;8.00;;;4.68;;
9675;SDS011;4876;42.656;23.292;2023-12-14T07:24:41;8.25;;;3.97;;
9675;SDS011;4876;42.656;23.292;2023-12-14T07:27:07;8.02;;;4.18;;
9675;SDS011;4876;42.656;23.292;2023-12-14T07:29:32;11.10;;;4.95;;
9675;SDS011;4876;42.656;23.292;2023-12-14T07:31:58;8.93;;;4.90;;
9675;SDS011;4876;42.656;23.292;2023-12-14T07:34:23;12.48;;;5.43;;
9675;SDS011;4876;42.656;23.292;2023-12-14T07:36:50;9.27;;;5.72;;
9675;SDS011;4876;42.656;23.292;2023-12-14T07:39:15;6.93;;;3.85;;
9675;SDS011;4876;42.656;23.292;2023-12-14T07:41:41;10.93;;;4.68;;
9675;SDS011;4876;42.656;23.292;2023-12-14T07:44:06;8.13;;;4.35;;
9675;SDS011;4876;42.656;23.292;2023-12-14T07:46:32;9.82;;;4.97;;
9675;SDS011;4876;42.656;23.292;2023-12-14T07:48:57;7.82;;;4.35;;
9675;SDS011;4876;42.656;23.292;2023-12-14T07:51:23;11.18;;;4.35;;
9675;SDS011;4876;42.656;23.292;2023-12-14T07:53:49;9.27;;;3.78;;
9675;SDS011;4876;42.656;23.292;2023-12-14T07:56:14;8.23;;;3.90;;
9675;SDS011;4876;42.656;23.292;2023-12-14T07:58:40;7.95;;;3.63;;
9675;SDS011;4876;42.656;23.292;2023-12-14T08:01:06;8.18;;;4.00;;
9675;SDS011;4876;42.656;23.292;2023-12-14T08:03:31;9.10;;;3.72;;
9675;SDS011;4876;42.656;23.292;2023-12-14T08:05:57;10.98;;;3.92;;
9675;SDS011;4876;42.656;23.292;2023-12-14T08:08:22;7.25;;;3.50;;
9675;SDS011;4876;42.656;23.292;2023-12-14T08:10:48;8.82;;;3.92;;
9675;SDS011;4876;42.656;23.292;2023-12-14T08:13:14;7.43;;;3.83;;
9675;SDS011;4876;42.656;23.292;2023-12-14T08:15:40;7.03;;;3.50;;
9675;SDS011;4876;42.656;23.292;2023-12-14T08:18:05;8.93;;;3.88;;
9675;SDS011;4876;42.656;23.292;2023-12-14T08:20:32;6.30;;;3.33;;
9675;SDS011;4876;42.656;23.292;2023-12-14T08:22:58;16.00;;;4.43;;
9675;SDS011;4876;42.656;23.292;2023-12-14T08:25:23;8.40;;;3.65;;
9675;SDS011;4876;42.656;23.292;2023-12-14T08:27:49;6.82;;;3.38;;
9675;SDS011;4876;42.656;23.292;2023-12-14T08:30:15;6.00;;;3.22;;
9675;SDS011;4876;42.656;23.292;2023-12-14T08:32:41;6.03;;;3.45;;
9675;SDS011;4876;42.656;23.292;2023-12-14T08:35:08;6.40;;;3.53;;
9675;SDS011;4876;42.656;23.292;2023-12-14T08:37:35;5.53;;;2.95;;
9675;SDS011;4876;42.656;23.292;2023-12-14T08:40:01;12.40;;;4.78;;
9675;SDS011;4876;42.656;23.292;2023-12-14T08:42:27;8.50;;;4.43;;
9675;SDS011;4876;42.656;23.292;2023-12-14T08:44:52;9.55;;;4.22;;
9675;SDS011;4876;42.656;23.292;2023-12-14T08:47:18;9.40;;;4.10;;
9675;SDS011;4876;42.656;23.292;2023-12-14T08:49:43;6.78;;;3.63;;
9675;SDS011;4876;42.656;23.292;2023-12-14T08:52:09;9.85;;;3.60;;
9675;SDS011;4876;42.656;23.292;2023-12-14T08:54:36;10.68;;;4.20;;
9675;SDS011;4876;42.656;23.292;2023-12-14T08:57:02;11.88;;;4.78;;
9675;SDS011;4876;42.656;23.292;2023-12-14T08:59:28;9.85;;;4.43;;
9675;SDS011;4876;42.656;23.292;2023-12-14T09:01:53;7.90;;;3.55;;
9675;SDS011;4876;42.656;23.292;2023-12-14T09:04:19;5.80;;;3.35;;
9675;SDS011;4876;42.656;23.292;2023-12-14T09:06:46;9.05;;;3.28;;
9675;SDS011;4876;42.656;23.292;2023-12-14T09:09:11;6.88;;;3.70;;
9675;SDS011;4876;42.656;23.292;2023-12-14T09:11:37;8.10;;;3.67;;
9675;SDS011;4876;42.656;23.292;2023-12-14T09:14:03;10.73;;;3.83;;
9675;SDS011;4876;42.656;23.292;2023-12-14T09:16:28;5.78;;;3.00;;
9675;SDS011;4876;42.656;23.292;2023-12-14T09:18:54;7.50;;;3.13;;
9675;SDS011;4876;42.656;23.292;2023-12-14T09:21:19;5.75;;;2.47;;
9675;SDS011;4876;42.656;23.292;2023-12-14T09:23:45;6.88;;;3.45;;
9675;SDS011;4876;42.656;23.292;2023-12-14T09:26:10;4.55;;;2.75;;
9675;SDS011;4876;42.656;23.292;2023-12-14T09:28:36;10.30;;;3.15;;
9675;SDS011;4876;42.656;23.292;2023-12-14T09:31:02;11.93;;;3.13;;
9675;SDS011;4876;42.656;23.292;2023-12-14T09:33:28;9.82;;;3.20;;
9675;SDS011;4876;42.656;23.292;2023-12-14T09:35:53;5.95;;;2.80;;
9675;SDS011;4876;42.656;23.292;2023-12-14T09:38:19;5.57;;;2.75;;
9675;SDS011;4876;42.656;23.292;2023-12-14T09:40:44;8.98;;;2.80;;
9675;SDS011;4876;42.656;23.292;2023-12-14T09:43:10;6.38;;;2.38;;
9675;SDS011;4876;42.656;23.292;2023-12-14T09:45:37;7.35;;;2.83;;
9675;SDS011;4876;42.656;23.292;2023-12-14T09:48:07;6.82;;;2.67;;
9675;SDS011;4876;42.656;23.292;2023-12-14T09:50:35;4.70;;;2.50;;
9675;SDS011;4876;42.656;23.292;2023-12-14T09:53:02;5.60;;;2.92;;
9675;SDS011;4876;42.656;23.292;2023-12-14T09:55:31;4.93;;;2.83;;
9675;SDS011;4876;42.656;23.292;2023-12-14T09:57:56;6.47;;;2.40;;
9675;SDS011;4876;42.656;23.292;2023-12-14T10:06:01;9.15;;;3.47;;
9675;SDS011;4876;42.656;23.292;2023-12-14T10:08:29;6.90;;;2.65;;
9675;SDS011;4876;42.656;23.292;2023-12-14T10:10:55;7.88;;;2.90;;
9675;SDS011;4876;42.656;23.292;2023-12-14T10:13:38;6.43;;;2.78;;
9675;SDS011;4876;42.656;23.292;2023-12-14T10:16:04;6.18;;;2.78;;
9675;SDS011;4876;42.656;23.292;2023-12-14T10:18:31;4.88;;;2.38;;
9675;SDS011;4876;42.656;23.292;2023-12-14T10:20:59;6.90;;;2.72;;
9675;SDS011;4876;42.656;23.292;2023-12-14T10:23:24;5.82;;;2.72;;
9675;SDS011;4876;42.656;23.292;2023-12-14T10:25:52;9.88;;;3.45;;
9675;SDS011;4876;42.656;23.292;2023-12-14T10:28:18;8.35;;;2.80;;
9675;SDS011;4876;42.656;23.292;2023-12-14T10:30:43;10.20;;;4.07;;
9675;SDS011;4876;42.656;23.292;2023-12-14T10:33:09;10.27;;;3.95;;
9675;SDS011;4876;42.656;23.292;2023-12-14T10:35:35;14.80;;;3.92;;
9675;SDS011;4876;42.656;23.292;2023-12-14T10:38:04;11.60;;;5.13;;
9675;SDS011;4876;42.656;23.292;2023-12-14T10:40:33;11.55;;;4.70;;
9675;SDS011;4876;42.656;23.292;2023-12-14T10:43:02;12.55;;;4.38;;
9675;SDS011;4876;42.656;23.292;2023-12-14T10:45:30;11.07;;;5.10;;
9675;SDS011;4876;42.656;23.292;2023-12-14T10:50:28;13.32;;;5.25;;
9675;SDS011;4876;42.656;23.292;2023-12-14T10:52:54;11.50;;;5.40;;
9675;SDS011;4876;42.656;23.292;2023-12-14T10:55:22;13.32;;;5.65;;
9675;SDS011;4876;42.656;23.292;2023-12-14T10:57:48;12.32;;;5.63;;
9675;SDS011;4876;42.656;23.292;2023-12-14T11:02:45;10.35;;;4.75;;
9675;SDS011;4876;42.656;23.292;2023-12-14T11:05:12;8.15;;;4.40;;
9675;SDS011;4876;42.656;23.292;2023-12-14T11:10:14;11.80;;;3.97;;
9675;SDS011;4876;42.656;23.292;2023-12-14T11:12:50;6.05;;;3.20;;
9675;SDS011;4876;42.656;23.292;2023-12-14T11:15:25;6.15;;;2.35;;
9675;SDS011;4876;42.656;23.292;2023-12-14T11:23:14;4.63;;;2.17;;
9675;SDS011;4876;42.656;23.292;2023-12-14T11:25:51;5.38;;;2.00;;
9675;SDS011;4876;42.656;23.292;2023-12-14T11:28:19;8.73;;;2.47;;
9675;SDS011;4876;42.656;23.292;2023-12-14T11:30:45;5.28;;;2.20;;
9675;SDS011;4876;42.656;23.292;2023-12-14T11:33:12;4.45;;;1.98;;
9675;SDS011;4876;42.656;23.292;2023-12-14T11:35:38;5.22;;;2.05;;
9675;SDS011;4876;42.656;23.292;2023-12-14T11:38:04;2.70;;;1.38;;
9675;SDS011;4876;42.656;23.292;2023-12-14T11:40:39;3.35;;;1.10;;
9675;SDS011;4876;42.656;23.292;2023-12-14T11:43:07;3.08;;;1.08;;
9675;SDS011;4876;42.656;23.292;2023-12-14T11:45:34;3.00;;;1.20;;
9675;SDS011;4876;42.656;23.292;2023-12-14T11:48:01;3.25;;;1.10;;
9675;SDS011;4876;42.656;23.292;2023-12-14T11:50:31;4.30;;;0.98;;
9675;SDS011;4876;42.656;23.292;2023-12-14T11:52:59;2.97;;;0.90;;
9675;SDS011;4876;42.656;23.292;2023-12-14T11:55:28;1.48;;;0.82;;
9675;SDS011;4876;42.656;23.292;2023-12-14T11:57:55;3.90;;;1.13;;
9675;SDS011;4876;42.656;23.292;2023-12-14T12:00:28;2.88;;;1.10;;
9675;SDS011;4876;42.656;23.292;2023-12-14T12:03:10;4.55;;;0.82;;
9675;SDS011;4876;42.656;23.292;2023-12-14T12:05:38;5.22;;;0.80;;
9675;SDS011;4876;42.656;23.292;2023-12-14T12:10:31;2.45;;;0.55;;
9675;SDS011;4876;42.656;23.292;2023-12-14T12:13:07;1.58;;;0.80;;
9675;SDS011;4876;42.656;23.292;2023-12-14T12:15:37;1.83;;;0.60;;
9675;SDS011;4876;42.656;23.292;2023-12-14T12:18:06;2.28;;;0.70;;
9675;SDS011;4876;42.656;23.292;2023-12-14T12:20:32;3.10;;;0.40;;
9675;SDS011;4876;42.656;23.292;2023-12-14T12:22:58;1.25;;;0.60;;
9675;SDS011;4876;42.656;23.292;2023-12-14T12:25:24;3.63;;;0.60;;
9675;SDS011;4876;42.656;23.292;2023-12-14T12:27:51;3.63;;;0.80;;
9675;SDS011;4876;42.656;23.292;2023-12-14T12:30:17;2.40;;;0.57;;
9675;SDS011;4876;42.656;23.292;2023-12-14T12:32:43;0.75;;;0.28;;
9675;SDS011;4876;42.656;23.292;2023-12-14T12:35:08;0.90;;;0.28;;
9675;SDS011;4876;42.656;23.292;2023-12-14T12:37:34;0.57;;;0.28;;
9675;SDS011;4876;42.656;23.292;2023-12-14T12:40:00;2.10;;;0.40;;
9675;SDS011;4876;42.656;23.292;2023-12-14T12:42:26;1.02;;;0.30;;
9675;SDS011;4876;42.656;23.292;2023-12-14T12:44:51;0.82;;;0.30;;
9675;SDS011;4876;42.656;23.292;2023-12-14T12:47:17;1.60;;;0.70;;
9675;SDS011;4876;42.656;23.292;2023-12-14T12:49:43;0.85;;;0.30;;
9675;SDS011;4876;42.656;23.292;2023-12-14T12:52:09;0.40;;;0.20;;
9675;SDS011;4876;42.656;23.292;2023-12-14T12:54:34;1.67;;;0.47;;
9675;SDS011;4876;42.656;23.292;2023-12-14T12:57:00;0.90;;;0.30;;
9675;SDS011;4876;42.656;23.292;2023-12-14T12:59:25;1.45;;;0.13;;
9675;SDS011;4876;42.656;23.292;2023-12-14T13:01:51;0.68;;;0.45;;
9675;SDS011;4876;42.656;23.292;2023-12-14T13:04:20;0.43;;;0.10;;
9675;SDS011;4876;42.656;23.292;2023-12-14T13:06:50;0.93;;;0.40;;
9675;SDS011;4876;42.656;23.292;2023-12-14T13:09:18;0.30;;;0.20;;
9675;SDS011;4876;42.656;23.292;2023-12-14T13:11:45;0.70;;;0.22;;
9675;SDS011;4876;42.656;23.292;2023-12-14T13:14:11;0.60;;;0.30;;
9675;SDS011;4876;42.656;23.292;2023-12-14T13:16:38;0.60;;;0.28;;
9675;SDS011;4876;42.656;23.292;2023-12-14T13:19:03;1.10;;;0.40;;
9675;SDS011;4876;42.656;23.292;2023-12-14T13:21:31;0.68;;;0.25;;
9675;SDS011;4876;42.656;23.292;2023-12-14T13:24:00;0.40;;;0.10;;
9675;SDS011;4876;42.656;23.292;2023-12-14T13:26:26;1.30;;;0.38;;
9675;SDS011;4876;42.656;23.292;2023-12-14T13:28:52;0.82;;;0.22;;
9675;SDS011;4876;42.656;23.292;2023-12-14T13:31:18;0.50;;;0.20;;
9675;SDS011;4876;42.656;23.292;2023-12-14T13:33:44;0.68;;;0.35;;
9675;SDS011;4876;42.656;23.292;2023-12-14T13:36:11;0.77;;;0.20;;
9675;SDS011;4876;42.656;23.292;2023-12-14T13:38:37;1.17;;;0.28;;
9675;SDS011;4876;42.656;23.292;2023-12-14T13:41:03;1.75;;;0.25;;
9675;SDS011;4876;42.656;23.292;2023-12-14T13:43:29;0.30;;;0.20;;
9675;SDS011;4876;42.656;23.292;2023-12-14T13:45:55;2.08;;;0.28;;
9675;SDS011;4876;42.656;23.292;2023-12-14T13:48:26;0.85;;;0.20;;
9675;SDS011;4876;42.656;23.292;2023-12-14T13:50:53;0.68;;;0.30;;
9675;SDS011;4876;42.656;23.292;2023-12-14T13:53:18;1.45;;;0.35;;
9675;SDS011;4876;42.656;23.292;2023-12-14T13:55:45;1.55;;;0.60;;
9675;SDS011;4876;42.656;23.292;2023-12-14T13:58:11;2.72;;;0.35;;
9675;SDS011;4876;42.656;23.292;2023-12-14T14:00:37;1.08;;;0.30;;
9675;SDS011;4876;42.656;23.292;2023-12-14T14:03:02;2.38;;;0.20;;
9675;SDS011;4876;42.656;23.292;2023-12-14T14:07:57;0.82;;;0.32;;
9675;SDS011;4876;42.656;23.292;2023-12-14T14:10:23;0.68;;;0.20;;
9675;SDS011;4876;42.656;23.292;2023-12-14T14:12:48;0.50;;;0.15;;
9675;SDS011;4876;42.656;23.292;2023-12-14T14:15:14;0.85;;;0.22;;
9675;SDS011;4876;42.656;23.292;2023-12-14T14:17:40;2.63;;;1.02;;
9675;SDS011;4876;42.656;23.292;2023-12-14T14:20:06;1.05;;;0.40;;
9675;SDS011;4876;42.656;23.292;2023-12-14T14:22:33;0.75;;;0.30;;
9675;SDS011;4876;42.656;23.292;2023-12-14T14:24:59;1.45;;;0.15;;
9675;SDS011;4876;42.656;23.292;2023-12-14T14:27:25;1.27;;;0.30;;
9675;SDS011;4876;42.656;23.292;2023-12-14T14:29:50;0.80;;;0.52;;
9675;SDS011;4876;42.656;23.292;2023-12-14T14:34:44;1.80;;;0.50;;
9675;SDS011;4876;42.656;23.292;2023-12-14T14:37:10;1.05;;;0.30;;
9675;SDS011;4876;42.656;23.292;2023-12-14T14:39:35;1.60;;;0.20;;
9675;SDS011;4876;42.656;23.292;2023-12-14T14:42:04;0.85;;;0.32;;
9675;SDS011;4876;42.656;23.292;2023-12-14T14:44:30;1.05;;;0.60;;
9675;SDS011;4876;42.656;23.292;2023-12-14T14:46:55;0.50;;;0.13;;
9675;SDS011;4876;42.656;23.292;2023-12-14T14:49:21;6.32;;;0.40;;
9675;SDS011;4876;42.656;23.292;2023-12-14T14:51:47;2.10;;;0.40;;
9675;SDS011;4876;42.656;23.292;2023-12-14T14:54:12;0.82;;;0.50;;
9675;SDS011;4876;42.656;23.292;2023-12-14T14:56:38;3.00;;;0.40;;
9675;SDS011;4876;42.656;23.292;2023-12-14T14:59:04;1.50;;;0.40;;
9675;SDS011;4876;42.656;23.292;2023-12-14T15:01:31;0.52;;;0.38;;
9675;SDS011;4876;42.656;23.292;2023-12-14T15:03:57;0.50;;;0.47;;
9675;SDS011;4876;42.656;23.292;2023-12-14T15:06:22;1.70;;;0.60;;
9675;SDS011;4876;42.656;23.292;2023-12-14T15:08:48;2.63;;;0.88;;
9675;SDS011;4876;42.656;23.292;2023-12-14T15:11:13;1.67;;;0.70;;
9675;SDS011;4876;42.656;23.292;2023-12-14T15:13:39;1.45;;;0.60;;
9675;SDS011;4876;42.656;23.292;2023-12-14T15:16:05;1.58;;;0.88;;
9675;SDS011;4876;42.656;23.292;2023-12-14T15:18:32;2.38;;;0.90;;
9675;SDS011;4876;42.656;23.292;2023-12-14T15:20:58;3.00;;;0.68;;